Time;durP1;ratioP1;P1;durP2;ratioP2;P2;SDS_P1;SDS_P2;PMS_P1;PMS_P2;Temp;Humidity;BMP_temperature;BMP_pressure;BME280_temperature;BME280_humidity;BME280_pressure;Samples;Min_cycle;Max_cycle;Signal;HPM_P1;HPM_P2
2021/09/07 00:01:43;;;;;;;8.45;4.80;;;18.00;93.50;;;;;;5086530;28;20028;-72
2021/09/07 00:04:08;;;;;;;7.05;4.70;;;18.00;93.50;;;;;;5080740;28;20035;-71
2021/09/07 00:06:34;;;;;;;7.55;4.43;;;18.00;93.50;;;;;;5071051;28;20048;-71
2021/09/07 00:09:00;;;;;;;9.50;3.92;;;18.00;93.50;;;;;;5072270;28;20017;-71
2021/09/07 00:11:25;;;;;;;6.97;4.32;;;18.00;93.50;;;;;;5074984;28;20107;-71
2021/09/07 00:13:51;;;;;;;7.30;3.97;;;17.90;93.50;;;;;;5075594;28;20032;-71
2021/09/07 00:16:17;;;;;;;7.38;3.80;;;17.90;93.60;;;;;;5070566;28;20068;-72
2021/09/07 00:18:42;;;;;;;6.88;3.80;;;17.90;93.60;;;;;;5076676;28;20437;-71
2021/09/07 00:21:08;;;;;;;7.25;4.40;;;17.90;93.60;;;;;;5073651;28;20413;-71
2021/09/07 00:23:34;;;;;;;9.60;4.32;;;17.90;93.60;;;;;;5070645;28;20032;-71
2021/09/07 00:26:00;;;;;;;8.18;4.28;;;17.90;93.60;;;;;;5078348;28;20027;-71
2021/09/07 00:28:25;;;;;;;7.22;3.95;;;17.90;93.60;;;;;;5071556;28;20040;-73
2021/09/07 00:30:51;;;;;;;7.13;4.60;;;17.90;93.50;;;;;;5072203;28;20021;-73
2021/09/07 00:33:17;;;;;;;7.68;4.43;;;18.00;93.50;;;;;;5078647;28;20032;-73
2021/09/07 00:35:42;;;;;;;8.75;5.20;;;18.00;93.50;;;;;;5071028;28;20086;-73
2021/09/07 00:38:10;;;;;;;7.35;4.13;;;18.00;93.50;;;;;;5071394;28;20497;-73
2021/09/07 00:40:36;;;;;;;7.00;4.22;;;18.00;93.50;;;;;;5082143;28;20066;-73
2021/09/07 00:43:02;;;;;;;11.23;5.30;;;18.00;93.40;;;;;;5075815;28;20389;-74
2021/09/07 00:45:27;;;;;;;9.27;4.45;;;18.00;93.40;;;;;;5070717;28;20035;-71
2021/09/07 00:47:54;;;;;;;8.63;4.70;;;18.10;93.40;;;;;;5084264;28;20032;-71
2021/09/07 00:50:19;;;;;;;7.68;4.43;;;18.10;93.30;;;;;;5073204;28;20490;-71
2021/09/07 00:52:47;;;;;;;7.00;4.32;;;18.20;93.40;;;;;;5070964;28;20067;-71
2021/09/07 00:55:13;;;;;;;6.78;4.32;;;18.30;93.20;;;;;;5086248;28;20054;-71
2021/09/07 00:57:41;;;;;;;9.00;4.50;;;18.30;93.10;;;;;;5079144;28;20033;-71
2021/09/07 01:00:08;;;;;;;10.25;4.88;;;18.10;93.50;;;;;;5071123;28;20486;-71
2021/09/07 01:02:35;;;;;;;6.57;3.92;;;18.00;93.40;;;;;;5081274;28;20107;-71
2021/09/07 01:05:00;;;;;;;8.18;4.38;;;18.00;93.40;;;;;;5094052;28;20048;-71
2021/09/07 01:07:26;;;;;;;7.57;4.25;;;18.00;93.50;;;;;;5085355;28;20108;-71
2021/09/07 01:09:52;;;;;;;6.35;4.15;;;18.00;93.40;;;;;;5074359;28;20016;-71
2021/09/07 01:12:18;;;;;;;10.75;4.65;;;18.00;93.40;;;;;;5074126;28;20108;-71
2021/09/07 01:14:43;;;;;;;7.47;4.38;;;17.90;93.50;;;;;;5075476;28;20048;-71
2021/09/07 01:17:18;;;;;;;7.72;4.60;;;18.00;93.40;;;;;;5080098;28;20029;-71
2021/09/07 01:19:47;;;;;;;8.73;4.05;;;18.00;93.60;;;;;;5074186;28;20016;-72
2021/09/07 01:22:22;;;;;;;9.30;4.68;;;18.10;93.60;;;;;;5079576;28;20074;-71
2021/09/07 01:24:49;;;;;;;7.32;4.45;;;18.10;93.60;;;;;;5083238;28;20877;-71
2021/09/07 01:27:17;;;;;;;8.25;4.60;;;18.10;93.60;;;;;;5082472;28;20027;-71
2021/09/07 01:29:45;;;;;;;5.90;3.78;;;18.10;93.40;;;;;;5082982;28;20035;-71
2021/09/07 01:32:11;;;;;;;10.23;4.45;;;18.10;93.40;;;;;;5094110;28;20024;-71
2021/09/07 01:34:38;;;;;;;6.63;4.35;;;18.10;93.40;;;;;;5076599;28;20032;-72
2021/09/07 01:37:04;;;;;;;9.73;3.88;;;18.10;93.40;;;;;;5085414;28;20043;-71
2021/09/07 01:39:30;;;;;;;8.02;4.45;;;18.10;93.50;;;;;;5085292;28;20074;-71
2021/09/07 01:41:56;;;;;;;8.55;4.55;;;18.10;93.50;;;;;;5085165;28;20423;-71
2021/09/07 01:44:23;;;;;;;8.93;4.32;;;18.00;93.70;;;;;;5079913;28;20029;-71
2021/09/07 01:46:48;;;;;;;7.32;4.70;;;18.10;93.60;;;;;;5073684;28;20024;-71
2021/09/07 01:49:15;;;;;;;8.02;4.20;;;18.30;93.10;;;;;;5074241;28;20040;-71
2021/09/07 01:51:43;;;;;;;5.82;3.58;;;18.30;93.20;;;;;;5081550;28;20032;-71
2021/09/07 01:54:10;;;;;;;6.90;4.15;;;18.30;93.30;;;;;;5084736;28;20444;-71
2021/09/07 01:56:37;;;;;;;8.85;4.18;;;18.30;93.50;;;;;;5086488;28;20119;-71
2021/09/07 01:59:04;;;;;;;8.25;4.30;;;18.30;93.40;;;;;;5083049;28;20052;-71
2021/09/07 02:01:30;;;;;;;7.55;4.50;;;18.20;93.20;;;;;;5080163;28;20036;-71
2021/09/07 02:03:56;;;;;;;7.28;5.07;;;18.30;93.10;;;;;;5073721;28;20115;-72
2021/09/07 02:06:22;;;;;;;8.00;4.00;;;18.30;93.30;;;;;;5092828;28;20198;-71
2021/09/07 02:08:48;;;;;;;8.50;4.88;;;18.20;93.50;;;;;;5085022;28;20488;-71
2021/09/07 02:11:13;;;;;;;7.18;4.47;;;18.30;93.40;;;;;;5090546;28;20028;-71
2021/09/07 02:13:39;;;;;;;8.07;5.00;;;18.30;93.40;;;;;;5072789;28;20028;-71
2021/09/07 02:16:05;;;;;;;11.68;5.22;;;18.20;93.80;;;;;;5073361;28;20033;-71
2021/09/07 02:18:31;;;;;;;6.78;3.97;;;18.20;93.80;;;;;;5076735;28;20099;-71
2021/09/07 02:20:56;;;;;;;7.95;4.20;;;18.20;93.60;;;;;;5076656;28;20043;-71
2021/09/07 02:23:22;;;;;;;7.85;4.50;;;18.00;93.90;;;;;;5072924;28;20024;-71
2021/09/07 02:25:48;;;;;;;7.03;3.97;;;17.70;94.50;;;;;;5078724;28;20024;-71
2021/09/07 02:28:14;;;;;;;6.97;3.90;;;17.50;94.80;;;;;;5082347;28;20509;-71
2021/09/07 02:30:40;;;;;;;8.73;4.60;;;17.40;95.00;;;;;;5087954;28;20025;-71
2021/09/07 02:33:08;;;;;;;7.43;4.57;;;17.50;94.70;;;;;;5081049;28;20539;-71
2021/09/07 02:35:34;;;;;;;7.43;4.75;;;17.50;94.70;;;;;;5072749;28;20029;-71
2021/09/07 02:38:02;;;;;;;8.80;4.18;;;17.50;94.80;;;;;;5080328;28;20029;-71
2021/09/07 02:40:28;;;;;;;9.40;4.60;;;17.60;94.90;;;;;;5080782;28;20058;-71
2021/09/07 02:42:53;;;;;;;7.70;4.32;;;17.50;94.80;;;;;;5072291;28;20028;-71
2021/09/07 02:45:19;;;;;;;8.60;4.68;;;17.40;94.90;;;;;;5072364;28;20033;-71
2021/09/07 02:47:45;;;;;;;7.63;4.88;;;16.90;95.60;;;;;;5080511;28;20099;-71
2021/09/07 02:50:15;;;;;;;8.48;4.80;;;16.90;95.50;;;;;;5080834;28;20046;-71
2021/09/07 02:52:42;;;;;;;6.63;4.25;;;17.10;95.10;;;;;;5084435;28;20020;-73
2021/09/07 02:55:08;;;;;;;8.68;4.22;;;17.20;94.90;;;;;;5076295;28;20032;-73
2021/09/07 02:57:34;;;;;;;7.07;4.70;;;17.20;95.00;;;;;;5072273;28;20052;-73
2021/09/07 03:00:00;;;;;;;6.20;4.22;;;17.20;95.00;;;;;;5072347;28;20059;-73
2021/09/07 03:02:26;;;;;;;8.07;4.10;;;17.00;95.30;;;;;;5087115;28;20077;-74
2021/09/07 03:04:52;;;;;;;8.80;4.15;;;17.10;95.10;;;;;;5068422;28;20066;-73
2021/09/07 03:07:18;;;;;;;6.95;3.90;;;17.10;95.20;;;;;;5068399;28;20056;-73
2021/09/07 03:09:45;;;;;;;9.20;4.40;;;16.80;95.40;;;;;;5087961;28;20024;-73
2021/09/07 03:12:11;;;;;;;7.50;4.38;;;16.80;95.60;;;;;;5080093;28;20036;-73
2021/09/07 03:14:37;;;;;;;7.10;4.63;;;16.80;95.60;;;;;;5085551;28;20016;-74
2021/09/07 03:17:03;;;;;;;9.15;5.60;;;16.70;95.70;;;;;;5068366;28;20028;-73
2021/09/07 03:19:28;;;;;;;8.80;4.07;;;16.60;95.70;;;;;;5068220;28;20539;-73
2021/09/07 03:21:54;;;;;;;6.53;4.20;;;16.80;95.50;;;;;;5072349;28;20024;-73
2021/09/07 03:24:20;;;;;;;7.43;4.65;;;16.60;95.90;;;;;;5071675;28;20123;-73
2021/09/07 03:26:46;;;;;;;8.05;4.95;;;16.70;95.90;;;;;;5067739;28;20031;-73
2021/09/07 03:29:11;;;;;;;7.13;3.90;;;16.80;95.50;;;;;;5074293;28;20038;-73
2021/09/07 03:31:37;;;;;;;9.63;4.63;;;16.80;95.50;;;;;;5078031;28;20028;-73
2021/09/07 03:34:04;;;;;;;7.82;4.72;;;16.80;95.70;;;;;;5081558;28;20016;-73
2021/09/07 03:36:29;;;;;;;7.72;4.70;;;16.60;95.70;;;;;;5078925;28;20036;-73
2021/09/07 03:38:55;;;;;;;7.80;4.25;;;16.60;95.80;;;;;;5071471;28;20070;-74
2021/09/07 03:41:21;;;;;;;7.10;4.38;;;16.60;95.90;;;;;;5087940;28;20767;-73
2021/09/07 03:43:47;;;;;;;7.68;5.35;;;16.60;95.70;;;;;;5077241;28;20398;-73
2021/09/07 03:46:13;;;;;;;7.88;4.57;;;16.60;95.80;;;;;;5068307;28;20040;-73
2021/09/07 03:48:40;;;;;;;9.02;4.55;;;16.50;95.90;;;;;;5067718;28;20036;-71
2021/09/07 03:51:05;;;;;;;5.55;3.60;;;16.80;95.40;;;;;;5075862;28;20074;-72
2021/09/07 03:53:32;;;;;;;9.90;5.30;;;16.80;95.30;;;;;;5067586;28;20024;-73
2021/09/07 03:55:57;;;;;;;7.57;4.88;;;16.80;96.10;;;;;;5075785;28;20029;-73
2021/09/07 03:58:23;;;;;;;7.97;5.22;;;16.80;95.50;;;;;;5075479;28;20021;-73
2021/09/07 04:00:49;;;;;;;6.47;4.10;;;16.70;95.70;;;;;;5084075;28;20027;-73
2021/09/07 04:03:17;;;;;;;6.78;4.32;;;16.60;95.90;;;;;;5081552;28;20057;-73
2021/09/07 04:05:43;;;;;;;6.68;4.35;;;16.60;95.90;;;;;;5069770;28;20452;-73
2021/09/07 04:08:09;;;;;;;8.13;4.55;;;16.40;96.50;;;;;;5067881;28;20478;-73
2021/09/07 04:10:34;;;;;;;8.40;5.00;;;16.20;96.80;;;;;;5067499;28;20107;-73
2021/09/07 04:13:00;;;;;;;8.68;4.05;;;16.10;96.90;;;;;;5068080;28;20111;-73
2021/09/07 04:15:26;;;;;;;9.65;5.03;;;16.00;97.00;;;;;;5067304;28;20705;-73
2021/09/07 04:17:52;;;;;;;8.88;5.25;;;15.90;97.40;;;;;;5083974;28;20029;-73
2021/09/07 04:20:17;;;;;;;7.80;4.22;;;15.90;97.10;;;;;;5068012;28;20486;-73
2021/09/07 04:22:43;;;;;;;7.20;4.05;;;15.90;97.10;;;;;;5067288;28;20155;-73
2021/09/07 04:25:10;;;;;;;7.40;4.43;;;15.70;97.40;;;;;;5071109;28;20115;-73
2021/09/07 04:27:36;;;;;;;8.85;5.75;;;15.50;97.70;;;;;;5079036;28;20031;-73
2021/09/07 04:30:06;;;;;;;8.10;4.53;;;15.60;97.60;;;;;;5087128;28;20520;-73
2021/09/07 04:32:32;;;;;;;9.27;5.13;;;15.50;97.60;;;;;;5080687;28;20107;-73
2021/09/07 04:34:57;;;;;;;8.63;4.40;;;15.60;97.60;;;;;;5067243;28;20120;-73
2021/09/07 04:37:23;;;;;;;7.50;4.55;;;15.50;97.80;;;;;;5068386;28;20115;-73
2021/09/07 04:39:50;;;;;;;8.63;4.30;;;15.50;97.90;;;;;;5078912;28;20389;-73
2021/09/07 04:42:16;;;;;;;8.98;5.28;;;15.50;97.90;;;;;;5071012;28;20465;-73
2021/09/07 04:44:42;;;;;;;7.78;4.22;;;15.60;97.80;;;;;;5071118;28;20351;-73
2021/09/07 04:47:08;;;;;;;7.28;4.28;;;15.70;97.80;;;;;;5078850;28;20043;-73
2021/09/07 04:49:34;;;;;;;7.50;4.90;;;15.70;97.60;;;;;;5070719;28;20568;-73
2021/09/07 04:52:00;;;;;;;11.15;4.85;;;15.70;97.80;;;;;;5071029;28;20070;-73
2021/09/07 04:54:25;;;;;;;9.50;4.97;;;15.60;97.80;;;;;;5083830;28;20031;-73
2021/09/07 04:56:51;;;;;;;9.15;4.85;;;15.60;97.90;;;;;;5090525;28;20509;-73
2021/09/07 04:59:17;;;;;;;6.22;4.47;;;15.70;97.90;;;;;;5081802;28;20386;-73
2021/09/07 05:01:42;;;;;;;9.80;4.68;;;15.70;97.90;;;;;;5074455;28;20458;-73
2021/09/07 05:04:08;;;;;;;14.25;5.03;;;15.60;98.20;;;;;;5070704;28;20028;-73
2021/09/07 05:06:34;;;;;;;9.65;4.75;;;15.70;98.00;;;;;;5070831;28;20063;-73
2021/09/07 05:08:59;;;;;;;8.48;4.65;;;15.60;98.10;;;;;;5078028;28;20515;-73
2021/09/07 05:11:25;;;;;;;10.10;5.25;;;15.50;98.40;;;;;;5070430;28;20482;-73
2021/09/07 05:13:51;;;;;;;7.43;4.75;;;15.50;98.40;;;;;;5070379;28;20028;-73
2021/09/07 05:16:16;;;;;;;6.95;4.15;;;15.60;98.30;;;;;;5070973;28;20177;-73
2021/09/07 05:18:42;;;;;;;6.97;4.72;;;15.70;98.10;;;;;;5070725;28;20032;-73
2021/09/07 05:21:08;;;;;;;8.27;4.45;;;15.80;97.90;;;;;;5071401;28;20086;-73
2021/09/07 05:23:33;;;;;;;9.75;4.72;;;15.80;97.90;;;;;;5090187;28;20035;-73
2021/09/07 05:25:59;;;;;;;9.35;5.22;;;15.90;97.70;;;;;;5081067;28;20421;-73
2021/09/07 05:28:25;;;;;;;8.27;4.90;;;15.80;98.10;;;;;;5073948;28;20062;-73
2021/09/07 05:30:50;;;;;;;10.27;5.15;;;15.90;98.00;;;;;;5082644;28;20112;-73
2021/09/07 05:33:16;;;;;;;9.48;5.10;;;15.90;98.20;;;;;;5069693;28;20522;-74
2021/09/07 05:35:42;;;;;;;9.20;5.07;;;15.90;98.20;;;;;;5075906;28;20604;-73
2021/09/07 05:38:08;;;;;;;7.70;4.43;;;15.90;98.30;;;;;;5080643;28;20085;-73
2021/09/07 05:40:33;;;;;;;9.55;4.70;;;15.80;98.70;;;;;;5071171;28;20044;-73
2021/09/07 05:42:59;;;;;;;14.82;5.63;;;15.70;98.60;;;;;;5081758;28;20054;-73
2021/09/07 05:45:25;;;;;;;9.43;5.03;;;15.70;98.70;;;;;;5069714;28;20027;-74
2021/09/07 05:47:51;;;;;;;11.90;5.35;;;15.70;98.70;;;;;;5075768;28;20370;-73
2021/09/07 05:50:16;;;;;;;7.32;4.30;;;15.80;98.70;;;;;;5079246;28;20024;-74
2021/09/07 05:52:43;;;;;;;7.47;4.68;;;15.90;98.60;;;;;;5069915;28;20020;-73
2021/09/07 05:55:10;;;;;;;11.00;5.90;;;16.00;98.60;;;;;;5077375;28;20125;-73
2021/09/07 05:57:36;;;;;;;9.63;4.80;;;16.00;98.40;;;;;;5080837;28;20107;-73
2021/09/07 06:00:04;;;;;;;9.20;5.10;;;16.20;98.40;;;;;;5073683;28;20028;-74
2021/09/07 06:02:30;;;;;;;8.98;4.95;;;16.20;98.40;;;;;;5077011;28;20108;-73
2021/09/07 06:04:55;;;;;;;8.50;5.30;;;16.10;98.90;;;;;;5083832;28;20103;-74
2021/09/07 06:07:21;;;;;;;13.18;6.07;;;16.20;99.20;;;;;;5079329;28;20557;-73
2021/09/07 06:09:47;;;;;;;9.98;6.30;;;16.10;99.30;;;;;;5077201;28;20094;-73
2021/09/07 06:12:13;;;;;;;8.68;5.63;;;16.20;99.40;;;;;;5077445;28;20650;-71
2021/09/07 06:14:38;;;;;;;12.75;5.20;;;16.40;99.30;;;;;;5069165;28;20035;-73
2021/09/07 06:17:07;;;;;;;7.70;4.95;;;16.40;99.20;;;;;;5077164;28;20379;-71
2021/09/07 06:19:33;;;;;;;12.15;5.18;;;16.40;99.10;;;;;;5079926;28;20043;-72
2021/09/07 06:21:59;;;;;;;10.75;5.22;;;16.40;98.90;;;;;;5082836;28;20366;-73
2021/09/07 06:24:25;;;;;;;9.32;5.60;;;16.50;98.70;;;;;;5084821;28;20040;-71
2021/09/07 06:26:50;;;;;;;9.18;5.70;;;16.60;99.30;;;;;;5082377;28;20358;-71
2021/09/07 06:29:16;;;;;;;11.23;6.35;;;16.50;99.40;;;;;;5088798;28;20028;-74
2021/09/07 06:31:42;;;;;;;10.73;5.30;;;16.30;99.10;;;;;;5072091;28;20024;-73
2021/09/07 06:34:07;;;;;;;6.68;4.88;;;16.20;99.40;;;;;;5082140;28;20115;-71
2021/09/07 06:36:33;;;;;;;7.95;5.43;;;16.50;99.40;;;;;;5070238;28;20043;-71
2021/09/07 06:38:59;;;;;;;8.50;5.22;;;16.70;99.40;;;;;;5083123;28;20370;-73
2021/09/07 06:41:24;;;;;;;8.05;4.93;;;16.80;99.40;;;;;;5082107;28;20067;-74
2021/09/07 06:43:50;;;;;;;9.13;4.90;;;17.00;98.60;;;;;;5077182;28;20028;-73
2021/09/07 06:46:16;;;;;;;8.73;5.78;;;17.10;98.30;;;;;;5068949;28;20511;-73
2021/09/07 06:48:42;;;;;;;7.90;5.45;;;17.20;98.90;;;;;;5068817;28;20059;-71
2021/09/07 06:51:08;;;;;;;9.20;5.57;;;17.20;98.80;;;;;;5074596;28;20034;-73
2021/09/07 06:53:33;;;;;;;9.05;4.32;;;17.30;98.80;;;;;;5079999;28;20439;-72
2021/09/07 06:56:00;;;;;;;8.50;5.20;;;17.80;98.20;;;;;;5080273;28;20036;-71
2021/09/07 06:58:26;;;;;;;8.88;5.15;;;18.70;97.50;;;;;;5071719;28;20104;-72
2021/09/07 07:00:52;;;;;;;9.40;5.95;;;19.60;96.20;;;;;;5068122;28;20617;-71
2021/09/07 07:03:18;;;;;;;30.58;6.50;;;20.00;94.70;;;;;;5068499;28;20028;-71
2021/09/07 07:05:44;;;;;;;28.75;6.97;;;19.80;95.00;;;;;;5075850;28;20406;-71
2021/09/07 07:08:10;;;;;;;14.70;6.20;;;19.40;95.80;;;;;;5082685;28;20497;-72
2021/09/07 07:10:36;;;;;;;11.23;6.07;;;19.20;96.30;;;;;;5070148;28;20028;-72
2021/09/07 07:13:02;;;;;;;16.77;7.15;;;19.60;97.00;;;;;;5075995;28;20024;-72
2021/09/07 07:15:27;;;;;;;73.40;12.57;;;20.10;95.80;;;;;;5068398;28;20043;-72
2021/09/07 07:17:53;;;;;;;26.80;7.35;;;20.20;95.60;;;;;;5068183;28;20028;-71
2021/09/07 07:20:19;;;;;;;10.18;5.70;;;19.80;96.30;;;;;;5076244;28;20107;-73
2021/09/07 07:22:45;;;;;;;9.95;5.57;;;19.10;96.70;;;;;;5076054;28;20032;-72
2021/09/07 07:25:11;;;;;;;10.10;6.03;;;18.50;97.70;;;;;;5067903;28;20074;-72
2021/09/07 07:27:39;;;;;;;9.85;6.20;;;18.10;98.80;;;;;;5075586;28;20040;-72
2021/09/07 07:30:06;;;;;;;19.27;7.13;;;17.80;98.70;;;;;;5072527;28;20024;-72
2021/09/07 07:32:32;;;;;;;13.68;7.10;;;17.70;98.80;;;;;;5079962;28;20032;-72
2021/09/07 07:34:58;;;;;;;10.77;6.47;;;17.70;99.00;;;;;;5072070;28;20074;-72
2021/09/07 07:37:23;;;;;;;12.43;7.22;;;17.70;99.20;;;;;;5067997;28;20037;-71
2021/09/07 07:39:49;;;;;;;11.27;6.28;;;17.90;99.90;;;;;;5068787;28;20032;-71
2021/09/07 07:42:15;;;;;;;9.32;5.35;;;18.40;99.70;;;;;;5079307;28;20107;-71
2021/09/07 07:44:41;;;;;;;13.07;6.40;;;18.40;98.30;;;;;;5079078;28;20110;-71
2021/09/07 07:47:07;;;;;;;15.25;6.28;;;18.60;98.90;;;;;;5076171;28;20051;-71
2021/09/07 07:49:33;;;;;;;18.98;6.50;;;18.60;98.60;;;;;;5068154;28;20037;-71
2021/09/07 07:51:58;;;;;;;17.70;6.60;;;18.80;98.30;;;;;;5076069;28;20028;-72
2021/09/07 07:54:24;;;;;;;9.63;5.65;;;19.00;97.50;;;;;;5072650;28;20039;-71
2021/09/07 07:56:50;;;;;;;12.13;5.90;;;18.70;97.00;;;;;;5070725;28;20032;-73
2021/09/07 07:59:16;;;;;;;9.40;6.00;;;18.70;96.70;;;;;;5083694;28;20031;-72
2021/09/07 08:01:42;;;;;;;8.20;5.38;;;18.60;97.50;;;;;;5074418;28;20604;-75
2021/09/07 08:04:07;;;;;;;29.88;7.30;;;18.60;97.00;;;;;;5078046;28;20016;-74
2021/09/07 08:06:34;;;;;;;9.65;5.30;;;18.70;97.50;;;;;;5077533;28;20041;-74
2021/09/07 08:09:01;;;;;;;7.78;5.50;;;18.50;96.90;;;;;;5076039;28;20020;-71
2021/09/07 08:11:26;;;;;;;9.98;6.57;;;18.70;97.00;;;;;;5079585;28;20027;-72
2021/09/07 08:13:52;;;;;;;8.07;5.10;;;18.80;96.80;;;;;;5075520;28;20024;-72
2021/09/07 08:16:19;;;;;;;18.23;6.95;;;19.00;97.30;;;;;;5073644;28;20041;-72
2021/09/07 08:18:45;;;;;;;10.60;5.82;;;19.00;96.70;;;;;;5088040;28;20020;-71
2021/09/07 08:21:10;;;;;;;10.07;6.22;;;19.00;96.80;;;;;;5090443;28;20035;-71
2021/09/07 08:23:36;;;;;;;8.43;5.40;;;18.90;95.50;;;;;;5079966;28;20029;-71
2021/09/07 08:26:02;;;;;;;8.32;5.88;;;19.00;95.80;;;;;;5079754;28;20449;-70
2021/09/07 08:28:27;;;;;;;10.50;5.78;;;19.20;96.40;;;;;;5081680;28;20028;-74
2021/09/07 08:30:53;;;;;;;7.22;5.00;;;19.10;95.50;;;;;;5083117;28;20024;-73
2021/09/07 08:33:19;;;;;;;13.23;5.57;;;19.20;95.70;;;;;;5074231;28;20432;-71
2021/09/07 08:35:46;;;;;;;11.30;5.53;;;19.20;95.40;;;;;;5071179;28;20025;-72
2021/09/07 08:38:12;;;;;;;10.88;6.32;;;19.30;95.50;;;;;;5070998;28;20021;-72
2021/09/07 08:40:38;;;;;;;12.07;5.20;;;19.40;95.30;;;;;;5080670;28;20073;-72
2021/09/07 08:43:05;;;;;;;12.85;5.47;;;19.50;95.30;;;;;;5081237;28;20909;-72
2021/09/07 08:45:32;;;;;;;10.32;6.15;;;19.50;95.40;;;;;;5079226;28;20028;-72
2021/09/07 08:47:59;;;;;;;12.88;6.35;;;19.70;95.20;;;;;;5079114;28;20637;-73
2021/09/07 08:50:25;;;;;;;9.35;4.97;;;19.90;95.60;;;;;;5070930;28;20032;-72
2021/09/07 08:52:55;;;;;;;9.85;5.35;;;20.00;95.10;;;;;;5072702;28;20035;-74
2021/09/07 08:55:21;;;;;;;9.18;5.28;;;19.90;95.00;;;;;;5090737;28;20047;-73
2021/09/07 08:57:46;;;;;;;10.13;5.60;;;21.30;94.00;;;;;;5063123;28;20029;-72
2021/09/07 09:00:13;;;;;;;10.20;5.88;;;23.40;91.30;;;;;;5074305;28;20039;-72
2021/09/07 09:02:41;;;;;;;9.07;5.53;;;24.90;90.70;;;;;;5082003;28;20028;-75
2021/09/07 09:05:08;;;;;;;9.50;6.10;;;24.70;89.60;;;;;;5071545;28;20052;-74
2021/09/07 09:07:34;;;;;;;9.02;5.53;;;25.50;89.20;;;;;;5075974;28;20024;-74
2021/09/07 09:10:00;;;;;;;11.85;5.93;;;26.40;89.30;;;;;;5072498;28;20017;-74
2021/09/07 09:12:29;;;;;;;9.02;5.32;;;26.50;88.10;;;;;;5069080;28;20105;-75
2021/09/07 09:14:54;;;;;;;12.73;5.65;;;26.40;87.70;;;;;;5077519;28;20020;-75
2021/09/07 09:17:22;;;;;;;11.32;5.28;;;26.90;87.40;;;;;;5082197;28;20044;-75
2021/09/07 09:19:59;;;;;;;9.40;4.82;;;26.60;86.90;;;;;;5088789;28;20012;-73
2021/09/07 09:22:41;;;;;;;9.98;6.28;;;26.70;87.00;;;;;;5079018;28;20147;-73
2021/09/07 09:25:19;;;;;;;9.48;5.38;;;26.00;87.10;;;;;;5070111;28;20021;-74
2021/09/07 09:27:49;;;;;;;8.57;5.90;;;25.90;87.40;;;;;;5070264;28;20377;-73
2021/09/07 09:30:15;;;;;;;8.07;5.20;;;25.30;87.10;;;;;;5077987;28;20024;-73
2021/09/07 09:32:50;;;;;;;9.13;5.55;;;25.00;87.90;;;;;;5081717;28;20024;-73
2021/09/07 09:35:16;;;;;;;10.10;5.63;;;25.20;88.50;;;;;;5073479;28;20075;-72
2021/09/07 09:38:01;;;;;;;11.35;5.93;;;25.20;88.30;;;;;;5077938;28;20035;-73
2021/09/07 09:40:29;;;;;;;8.15;6.05;;;24.90;89.60;;;;;;5070439;28;20028;-73
2021/09/07 09:42:58;;;;;;;11.65;5.18;;;24.60;89.80;;;;;;5073631;28;20095;-73
2021/09/07 09:45:31;;;;;;;11.38;6.07;;;23.80;90.10;;;;;;5089765;28;20457;-73
2021/09/07 09:47:58;;;;;;;9.07;5.82;;;22.70;91.00;;;;;;5070056;28;20017;-73
2021/09/07 09:50:25;;;;;;;8.95;5.55;;;22.60;91.20;;;;;;5076755;28;20027;-73
2021/09/07 09:52:52;;;;;;;12.88;5.63;;;22.70;91.40;;;;;;5070721;28;20033;-73
2021/09/07 09:55:18;;;;;;;9.77;5.50;;;22.60;91.20;;;;;;5051813;28;20410;-73
2021/09/07 09:57:44;;;;;;;9.20;6.03;;;22.50;91.30;;;;;;5077415;28;20024;-73
2021/09/07 10:00:13;;;;;;;10.50;5.70;;;22.60;91.20;;;;;;5069649;28;20053;-73
2021/09/07 10:02:40;;;;;;;11.57;5.68;;;22.60;91.90;;;;;;5069554;28;20090;-73
2021/09/07 10:05:06;;;;;;;11.82;5.82;;;22.90;91.20;;;;;;5077380;28;20090;-73
2021/09/07 10:07:33;;;;;;;11.38;5.43;;;23.10;90.80;;;;;;5069745;28;20085;-73
2021/09/07 10:09:59;;;;;;;10.30;6.10;;;23.20;91.00;;;;;;5069703;28;20040;-73
2021/09/07 10:12:37;;;;;;;8.57;5.20;;;23.10;91.00;;;;;;5077261;28;20509;-73
2021/09/07 10:17:49;;;;;;;13.45;5.70;;;23.00;91.20;;;;;;5080340;28;20051;-73
2021/09/07 10:20:55;;;;;;;12.18;5.65;;;23.00;91.30;;;;;;5069670;28;20046;-72
2021/09/07 10:24:03;;;;;;;14.88;6.32;;;22.70;90.60;;;;;;5069248;28;20048;-74
2021/09/07 10:26:38;;;;;;;12.55;5.95;;;22.80;91.10;;;;;;5069434;28;20023;-73
2021/09/07 10:29:12;;;;;;;11.88;5.90;;;23.20;91.00;;;;;;5069168;28;20036;-73
2021/09/07 10:31:52;;;;;;;11.63;5.43;;;23.00;90.70;;;;;;5069176;28;20367;-73
2021/09/07 10:34:20;;;;;;;9.30;5.47;;;23.40;91.20;;;;;;5087386;28;20033;-73
2021/09/07 10:37:04;;;;;;;7.88;5.15;;;23.60;90.20;;;;;;5088204;28;20028;-74
2021/09/07 10:39:34;;;;;;;11.00;5.85;;;23.50;89.70;;;;;;5072453;28;20027;-73
2021/09/07 10:42:03;;;;;;;9.05;6.25;;;23.50;90.30;;;;;;5072459;28;20048;-73
2021/09/07 10:44:59;;;;;;;8.32;4.97;;;23.80;90.20;;;;;;5069936;28;20363;-74
2021/09/07 10:47:40;;;;;;;8.02;5.22;;;24.50;89.90;;;;;;5062206;28;20050;-73
2021/09/07 10:50:06;;;;;;;9.20;5.45;;;24.90;86.90;;;;;;5071792;28;20038;-74
2021/09/07 10:52:35;;;;;;;7.80;4.70;;;24.90;84.50;;;;;;5068820;28;20147;-73
2021/09/07 10:55:13;;;;;;;11.60;4.68;;;24.90;86.90;;;;;;5076839;28;20403;-75
2021/09/07 10:57:40;;;;;;;10.27;4.97;;;25.10;86.20;;;;;;5069208;28;20039;-73
2021/09/07 11:00:13;;;;;;;8.43;4.65;;;25.40;88.40;;;;;;5068632;28;20021;-73
2021/09/07 11:02:41;;;;;;;7.82;4.85;;;25.30;85.80;;;;;;5084850;28;20028;-73
2021/09/07 11:05:35;;;;;;;8.05;4.95;;;25.20;86.50;;;;;;5076733;28;20541;-72
2021/09/07 11:08:01;;;;;;;;;;;24.60;85.70;;;;;;5067904;28;20036;-72
2021/09/07 11:10:45;;;;;;;8.68;5.30;;;24.40;87.40;;;;;;5068472;28;19915;-72
2021/09/07 11:13:23;;;;;;;8.63;5.57;;;24.20;88.20;;;;;;5068529;28;20096;-73
2021/09/07 11:15:49;;;;;;;7.15;5.05;;;24.20;88.70;;;;;;5080715;28;20525;-73
2021/09/07 11:18:20;;;;;;;6.55;4.57;;;24.30;88.30;;;;;;5072398;28;20036;-73
2021/09/07 11:20:47;;;;;;;8.60;5.40;;;24.40;89.70;;;;;;5068431;28;20032;-72
2021/09/07 11:23:17;;;;;;;10.48;5.25;;;24.40;90.20;;;;;;5076165;28;20082;-73
2021/09/07 11:25:48;;;;;;;11.00;6.80;;;24.20;89.70;;;;;;5068428;28;20044;-73
2021/09/07 11:28:15;;;;;;;8.73;6.22;;;24.30;89.60;;;;;;5068043;28;20036;-72
2021/09/07 11:30:44;;;;;;;11.88;5.63;;;24.40;89.90;;;;;;5069534;28;20028;-72
2021/09/07 11:33:12;;;;;;;10.70;5.70;;;24.30;88.50;;;;;;5073705;28;20063;-72
2021/09/07 11:35:48;;;;;;;7.40;5.25;;;24.30;88.40;;;;;;5068778;28;20064;-72
2021/09/07 11:38:16;;;;;;;8.85;4.78;;;24.20;87.10;;;;;;5079000;28;20129;-72
2021/09/07 11:40:47;;;;;;;7.22;5.03;;;24.20;86.60;;;;;;5079033;28;20036;-73
2021/09/07 11:43:25;;;;;;;10.48;4.80;;;24.20;87.20;;;;;;5082202;28;20024;-72
2021/09/07 11:46:07;;;;;;;11.60;5.38;;;24.20;86.70;;;;;;5075587;28;20104;-73
2021/09/07 11:48:33;;;;;;;8.07;4.32;;;24.60;87.00;;;;;;5067804;28;20032;-72
2021/09/07 11:50:58;;;;;;;11.05;5.10;;;24.80;87.80;;;;;;5087750;28;20024;-72
2021/09/07 11:53:24;;;;;;;7.70;4.63;;;24.90;88.30;;;;;;5073236;28;20425;-72
2021/09/07 11:55:54;;;;;;;11.10;5.57;;;25.00;88.20;;;;;;5069119;28;20032;-73
2021/09/07 11:58:26;;;;;;;7.38;4.47;;;25.20;87.90;;;;;;5074009;28;20056;-72
2021/09/07 12:00:58;;;;;;;10.95;5.40;;;25.70;87.50;;;;;;5077841;28;20028;-72
2021/09/07 12:03:33;;;;;;;8.07;4.80;;;25.60;87.70;;;;;;5079460;28;20024;-72
2021/09/07 12:06:00;;;;;;;11.93;5.22;;;25.50;85.00;;;;;;5082534;28;20048;-73
2021/09/07 12:08:37;;;;;;;7.13;4.88;;;25.40;84.30;;;;;;5087398;28;20046;-73
2021/09/07 12:11:04;;;;;;;8.75;4.57;;;25.50;84.90;;;;;;5070833;28;20026;-72
2021/09/07 12:13:30;;;;;;;9.07;5.43;;;25.40;84.40;;;;;;5081300;28;20087;-73
2021/09/07 12:15:55;;;;;;;11.18;4.78;;;25.10;85.90;;;;;;5085072;28;20040;-72
2021/09/07 12:18:35;;;;;;;12.07;5.80;;;25.30;87.70;;;;;;5087475;28;20032;-72
2021/09/07 12:21:21;;;;;;;13.75;5.75;;;25.70;86.40;;;;;;5078054;28;20123;-72
2021/09/07 12:23:48;;;;;;;8.70;4.65;;;26.00;85.80;;;;;;5075985;28;20024;-73
2021/09/07 12:26:15;;;;;;;9.13;5.20;;;26.00;84.70;;;;;;5086995;28;20547;-72
2021/09/07 12:28:42;;;;;;;9.70;5.18;;;26.10;85.90;;;;;;5080858;28;20489;-72
2021/09/07 12:31:13;;;;;;;8.15;4.75;;;26.30;86.50;;;;;;5083879;28;20020;-73
2021/09/07 12:33:52;;;;;;;8.32;5.32;;;26.50;85.90;;;;;;5072912;28;20123;-73
2021/09/07 12:36:21;;;;;;;7.38;5.38;;;26.50;84.40;;;;;;5078915;28;20058;-72
2021/09/07 12:38:48;;;;;;;6.53;4.55;;;26.10;85.50;;;;;;5079461;28;20388;-73
2021/09/07 12:41:16;;;;;;;8.38;5.15;;;26.20;84.50;;;;;;5084424;28;20028;-72
2021/09/07 12:43:46;;;;;;;10.18;4.90;;;26.40;83.50;;;;;;5067589;28;20020;-72
2021/09/07 12:46:13;;;;;;;9.82;4.03;;;26.30;84.40;;;;;;5076763;28;20367;-72
2021/09/07 12:48:41;;;;;;;6.45;4.45;;;26.40;85.30;;;;;;5082273;28;20021;-72